Time;durP1;ratioP1;P1;durP2;ratioP2;P2;SDS_P1;SDS_P2;PMS_P1;PMS_P2;Temp;Humidity;BMP_temperature;BMP_pressure;BME280_temperature;BME280_humidity;BME280_pressure;Samples;Min_cycle;Max_cycle;Signal;HPM_P1;HPM_P2
2021/05/21 00:00:33;;;;;;;7.28;5.90;;;;;;;13.22;100.00;96514.44;4967259;28;20034;-63
2021/05/21 00:03:01;;;;;;;8.77;5.90;;;;;;;12.76;100.00;96421.94;4949750;28;20061;-61
2021/05/21 00:05:26;;;;;;;8.15;6.00;;;;;;;13.16;100.00;96474.31;4967221;28;20038;-61
2021/05/21 00:07:52;;;;;;;6.18;4.63;;;;;;;13.28;100.00;96504.50;4949933;28;20039;-62
2021/05/21 00:10:17;;;;;;;10.48;4.35;;;;;;;13.30;100.00;96496.53;4966974;28;20086;-61
2021/05/21 00:12:43;;;;;;;10.27;4.18;;;;;;;13.25;100.00;96499.72;4967357;28;20100;-62
2021/05/21 00:15:09;;;;;;;6.68;3.92;;;;;;;13.25;100.00;96499.72;4949195;28;20042;-61
2021/05/21 00:17:35;;;;;;;6.93;5.07;;;;;;;13.25;100.00;96494.16;4949886;28;20035;-61
2021/05/21 00:20:01;;;;;;;8.02;3.97;;;;;;;13.28;100.00;96504.50;4967420;28;20108;-62
2021/05/21 00:22:26;;;;;;;4.70;3.28;;;;;;;13.32;100.00;96494.16;4949636;28;20043;-61
2021/05/21 00:24:52;;;;;;;4.03;3.38;;;;;;;12.51;100.00;96398.97;4949755;28;20042;-63
2021/05/21 00:27:17;;;;;;;4.03;3.40;;;;;;;12.90;100.00;96505.31;4948880;28;20437;-61
2021/05/21 00:29:43;;;;;;;3.05;2.78;;;;;;;12.94;100.00;96500.56;4967221;28;20495;-62
2021/05/21 00:32:09;;;;;;;6.28;3.78;;;;;;;12.32;100.00;96435.47;4966559;28;20101;-62
2021/05/21 00:34:35;;;;;;;4.25;3.10;;;;;;;12.80;100.00;96511.69;4949573;28;20093;-62
2021/05/21 00:37:00;;;;;;;5.00;3.33;;;;;;;12.61;100.00;96497.38;4966721;28;20543;-62
2021/05/21 00:39:26;;;;;;;3.80;3.50;;;;;;;12.52;100.00;96514.44;4949454;28;20054;-62
2021/05/21 00:41:51;;;;;;;7.97;3.70;;;;;;;12.50;100.00;96519.59;4966849;28;20042;-62
2021/05/21 00:44:17;;;;;;;7.20;4.05;;;;;;;12.64;100.00;96524.38;4965973;28;20611;-62
2021/05/21 00:46:42;;;;;;;4.47;4.07;;;;;;;12.54;100.00;96498.16;4948432;28;20069;-62
2021/05/21 00:49:08;;;;;;;5.07;4.05;;;;;;;12.70;100.00;96518.03;4965793;28;20066;-61
2021/05/21 00:51:33;;;;;;;5.47;3.70;;;;;;;12.36;100.00;96474.34;4966142;28;20077;-63
2021/05/21 00:53:59;;;;;;;4.05;3.63;;;;;;;12.80;100.00;96539.47;4948805;28;20026;-62
2021/05/21 00:56:26;;;;;;;5.32;4.20;;;;;;;12.77;100.00;96534.69;4966297;28;20114;-61
2021/05/21 00:58:52;;;;;;;8.27;5.05;;;;;;;12.87;100.00;96533.91;4966658;28;20043;-63
2021/05/21 01:01:17;;;;;;;19.27;7.32;;;;;;;12.99;100.00;96529.94;4966109;28;20035;-62
2021/05/21 01:03:43;;;;;;;9.88;8.30;;;;;;;13.01;100.00;96536.69;4966289;28;20113;-63
2021/05/21 01:06:11;;;;;;;9.18;6.03;;;;;;;13.00;100.00;96543.47;4948269;28;20046;-63
2021/05/21 01:08:38;;;;;;;6.07;5.22;;;;;;;12.67;100.00;96491.03;4966536;28;20034;-62
2021/05/21 01:11:05;;;;;;;5.70;5.18;;;;;;;13.05;100.00;96537.50;4948005;28;20513;-62
2021/05/21 01:13:32;;;;;;;6.28;5.68;;;;;;;13.10;100.00;96537.09;4948594;28;20035;-62
2021/05/21 01:15:57;;;;;;;5.38;4.88;;;;;;;12.77;100.00;96495.00;4948160;28;20130;-63
2021/05/21 01:18:23;;;;;;;4.22;3.83;;;;;;;10.75;100.00;96200.25;4965940;28;20173;-62
2021/05/21 01:20:48;;;;;;;4.72;4.32;;;;;;;12.88;100.00;96541.03;4948050;28;20023;-61
2021/05/21 01:23:14;;;;;;;4.97;3.45;;;;;;;12.78;100.00;96529.94;4948544;28;20180;-62
2021/05/21 01:25:39;;;;;;;4.93;4.20;;;;;;;12.58;100.00;96526.75;4965176;28;20038;-61
2021/05/21 01:28:05;;;;;;;4.10;3.70;;;;;;;12.12;100.00;96464.81;4966128;28;20045;-63
2021/05/21 01:30:31;;;;;;;4.13;3.72;;;;;;;12.67;100.00;96524.38;4965500;28;20166;-61
2021/05/21 01:33:05;;;;;;;6.85;4.22;;;;;;;12.65;100.00;96531.50;4965656;28;20619;-61
2021/05/21 01:35:31;;;;;;;5.75;4.63;;;;;;;11.88;100.00;96419.16;4947954;28;20062;-62
2021/05/21 01:37:56;;;;;;;6.13;4.35;;;;;;;12.65;100.00;96532.31;4947985;28;20081;-61
2021/05/21 01:40:23;;;;;;;4.65;4.22;;;;;;;12.45;100.00;96489.44;4946366;29;20434;-63
2021/05/21 01:42:49;;;;;;;4.28;3.88;;;;;;;12.70;100.00;96526.34;4929164;29;20485;-61
2021/05/21 01:45:14;;;;;;;3.83;3.53;;;;;;;12.44;100.00;96481.50;4946072;29;20094;-61
2021/05/21 01:47:40;;;;;;;4.40;3.95;;;;;;;12.71;100.00;96516.81;4946728;29;20051;-61
2021/05/21 01:50:07;;;;;;;4.72;3.20;;;;;;;12.60;100.00;96510.47;4946296;29;20418;-62
2021/05/21 01:52:33;;;;;;;5.35;3.67;;;;;;;12.66;100.00;96506.09;4929138;29;20054;-62
2021/05/21 01:54:58;;;;;;;4.25;3.85;;;;;;;12.68;100.00;96514.84;4946679;29;20106;-61
2021/05/21 01:57:24;;;;;;;3.70;3.40;;;;;;;12.72;100.00;96515.66;4946176;29;20074;-62
2021/05/21 01:59:49;;;;;;;5.82;4.70;;;;;;;12.73;100.00;96511.66;4945873;28;20483;-62
2021/05/21 02:02:15;;;;;;;5.57;3.90;;;;;;;12.75;100.00;96509.28;4945764;29;20038;-62
2021/05/21 02:04:42;;;;;;;4.57;4.18;;;;;;;12.84;100.00;96501.34;4946264;29;20035;-62
2021/05/21 02:07:11;;;;;;;5.53;3.95;;;;;;;12.84;100.00;96500.53;4928243;29;20573;-61
2021/05/21 02:09:58;;;;;;;4.97;4.50;;;;;;;12.87;100.00;96503.31;4928771;29;20035;-62
2021/05/21 02:12:24;;;;;;;14.93;4.43;;;;;;;12.80;100.00;96508.91;4945746;29;20042;-62
2021/05/21 02:14:50;;;;;;;5.07;3.72;;;;;;;12.88;100.00;96498.56;4946179;29;20300;-62
2021/05/21 02:17:16;;;;;;;4.30;3.90;;;;;;;12.86;100.00;96498.97;4945424;29;20437;-62
2021/05/21 02:19:41;;;;;;;6.05;3.90;;;;;;;12.94;100.00;96497.78;4945757;29;20028;-62
2021/05/21 02:22:08;;;;;;;7.00;4.22;;;;;;;12.93;100.00;96503.72;4945343;29;20122;-62
2021/05/21 02:24:34;;;;;;;4.43;4.03;;;;;;;12.95;100.00;96491.00;4945750;29;20038;-62
2021/05/21 02:27:00;;;;;;;3.75;3.30;;;;;;;12.97;100.00;96498.94;4928060;29;20039;-62
2021/05/21 02:29:25;;;;;;;4.68;3.63;;;;;;;12.17;100.00;96425.56;4945791;29;20027;-62
2021/05/21 02:31:51;;;;;;;4.85;3.83;;;;;;;12.10;100.00;96401.34;4945007;29;20047;-63
2021/05/21 02:34:16;;;;;;;4.45;4.05;;;;;;;12.84;100.00;96504.13;4945776;29;20034;-62
2021/05/21 02:36:42;;;;;;;6.35;3.83;;;;;;;12.44;100.00;96465.59;4927663;29;20037;-62
2021/05/21 02:39:07;;;;;;;4.18;3.60;;;;;;;12.39;100.00;96474.38;4954470;28;20051;-62
2021/05/21 02:41:33;;;;;;;3.80;3.38;;;;;;;12.40;100.00;96470.38;4964718;28;20034;-62
2021/05/21 02:43:59;;;;;;;4.43;3.65;;;;;;;12.46;100.00;96502.13;4964544;28;20057;-62
2021/05/21 02:46:24;;;;;;;6.70;4.00;;;;;;;12.11;100.00;96427.09;4964613;28;20032;-62
2021/05/21 02:48:50;;;;;;;4.20;3.38;;;;;;;12.60;100.00;96496.56;4947196;28;20125;-63
2021/05/21 02:51:15;;;;;;;5.43;3.42;;;;;;;12.08;100.00;96437.03;4964093;28;20027;-62
2021/05/21 02:53:40;;;;;;;5.13;4.10;;;;;;;12.48;100.00;96498.94;4964686;28;20106;-61
2021/05/21 02:56:06;;;;;;;5.30;3.95;;;;;;;12.45;100.00;96495.00;4964144;28;20042;-62
2021/05/21 02:58:31;;;;;;;4.68;4.18;;;;;;;12.38;100.00;96489.41;4965047;28;20039;-62
2021/05/21 03:00:58;;;;;;;6.13;3.97;;;;;;;12.07;100.00;96448.53;4946606;28;20041;-62
2021/05/21 03:03:23;;;;;;;5.43;4.13;;;;;;;12.43;100.00;96505.69;4964752;28;20031;-62
2021/05/21 03:05:49;;;;;;;4.30;3.90;;;;;;;12.35;100.00;96479.09;4964575;28;20485;-62
2021/05/21 03:08:14;;;;;;;4.93;4.05;;;;;;;12.50;100.00;96497.38;4964594;28;20038;-61
2021/05/21 03:10:40;;;;;;;4.03;3.55;;;;;;;12.54;100.00;96500.94;4946529;28;20418;-62
2021/05/21 03:13:06;;;;;;;12.25;5.05;;;;;;;12.38;100.00;96522.75;4966969;28;20472;-62
2021/05/21 03:15:32;;;;;;;5.57;3.92;;;;;;;12.42;100.00;96506.91;4968327;28;20039;-62
2021/05/21 03:17:59;;;;;;;5.93;3.72;;;;;;;12.45;100.00;96511.66;4968130;28;20477;-62
2021/05/21 03:20:25;;;;;;;5.57;3.90;;;;;;;11.92;100.00;96410.81;4949926;28;20035;-62
2021/05/21 03:22:51;;;;;;;10.18;6.07;;;;;;;12.45;100.00;96508.88;4950508;28;20046;-62
2021/05/21 03:25:16;;;;;;;11.77;7.40;;;;;;;11.95;100.00;96443.34;4967556;28;20034;-61
2021/05/21 03:27:42;;;;;;;9.18;6.82;;;;;;;12.31;100.00;96514.41;4950382;28;20058;-61
2021/05/21 03:30:10;;;;;;;7.75;4.28;;;;;;;12.33;100.00;96503.69;4967658;28;20720;-62
2021/05/21 03:32:35;;;;;;;11.75;4.25;;;;;;;12.12;100.00;96470.34;4950116;28;20565;-62
2021/05/21 03:35:01;;;;;;;4.18;3.75;;;;;;;11.85;100.00;96421.94;4968087;28;20436;-61
2021/05/21 03:37:26;;;;;;;4.88;3.95;;;;;;;12.35;100.00;96512.44;4950266;28;20098;-61
2021/05/21 03:39:52;;;;;;;5.30;3.95;;;;;;;10.04;100.00;96158.44;4950429;28;20132;-62
2021/05/21 03:42:17;;;;;;;4.15;3.67;;;;;;;12.35;100.00;96517.97;4967172;28;20047;-61
2021/05/21 03:44:43;;;;;;;4.13;3.38;;;;;;;12.30;100.00;96510.03;4967897;28;20034;-62
2021/05/21 03:47:09;;;;;;;3.88;3.47;;;;;;;12.00;100.00;96467.94;4967209;28;20090;-61
2021/05/21 03:49:34;;;;;;;7.28;4.30;;;;;;;12.25;100.00;96520.75;4949596;28;20076;-62
2021/05/21 03:52:00;;;;;;;5.25;4.18;;;;;;;12.40;100.00;96519.56;4967037;28;20560;-60
2021/05/21 03:54:26;;;;;;;5.57;4.18;;;;;;;12.22;100.00;96486.22;4967262;28;20074;-61
2021/05/21 03:56:52;;;;;;;4.32;3.88;;;;;;;12.37;100.00;96510.06;4967488;28;20023;-60
2021/05/21 03:59:17;;;;;;;6.82;4.28;;;;;;;12.48;100.00;96521.16;4967476;28;20070;-62
2021/05/21 04:01:46;;;;;;;5.07;4.25;;;;;;;12.78;100.00;96536.28;4967162;28;20093;-62
2021/05/21 04:04:11;;;;;;;6.13;4.72;;;;;;;12.81;100.00;96535.50;4967160;28;20390;-63
2021/05/21 04:06:36;;;;;;;5.53;3.92;;;;;;;12.83;99.08;96537.88;4948907;28;20043;-62
2021/05/21 04:09:06;;;;;;;5.47;4.00;;;;;;;12.59;100.00;96530.31;4967339;28;20034;-61
2021/05/21 04:11:35;;;;;;;6.28;4.50;;;;;;;12.79;100.00;96540.66;4949207;28;20097;-62
2021/05/21 04:14:02;;;;;;;6.55;4.10;;;;;;;12.37;98.76;96471.19;4967165;28;20034;-61
2021/05/21 04:16:28;;;;;;;7.50;5.55;;;;;;;12.94;97.85;96561.72;4966625;28;20464;-63
2021/05/21 04:18:53;;;;;;;5.60;4.15;;;;;;;13.07;94.88;96582.38;4966908;28;20034;-62
2021/05/21 04:21:22;;;;;;;6.60;4.97;;;;;;;12.96;98.87;96575.97;4966485;28;20497;-62
2021/05/21 04:23:48;;;;;;;6.55;5.13;;;;;;;13.23;99.30;96585.53;4948085;28;20531;-62
2021/05/21 04:26:15;;;;;;;7.25;5.55;;;;;;;13.11;97.44;96560.94;4966709;28;20697;-62
2021/05/21 04:28:41;;;;;;;9.95;8.98;;;;;;;13.27;94.22;96591.91;4949420;28;20049;-62
2021/05/21 04:31:07;;;;;;;5.00;4.60;;;;;;;13.37;93.52;96590.31;4966442;28;20497;-62
2021/05/21 04:33:33;;;;;;;5.38;4.53;;;;;;;13.21;90.56;96581.59;4966518;28;20086;-62
2021/05/21 04:35:59;;;;;;;5.28;4.78;;;;;;;13.22;90.61;96583.97;4966668;28;20035;-61
2021/05/21 04:38:25;;;;;;;5.30;4.47;;;;;;;13.17;91.24;96592.72;4948760;28;20228;-61
2021/05/21 04:40:51;;;;;;;5.35;4.65;;;;;;;12.76;93.69;96544.22;4948441;28;20053;-60
2021/05/21 04:43:22;;;;;;;7.13;6.20;;;;;;;13.20;94.44;96594.69;4966475;28;20494;-63
2021/05/21 04:45:48;;;;;;;6.63;4.82;;;;;;;13.39;94.69;96602.63;4966446;28;20059;-62
2021/05/21 04:48:13;;;;;;;6.20;5.45;;;;;;;13.32;95.15;96605.44;4966447;28;20031;-62
2021/05/21 04:50:39;;;;;;;5.35;4.68;;;;;;;13.32;94.31;96611.00;4966067;28;20038;-63
2021/05/21 04:53:04;;;;;;;5.07;4.57;;;;;;;13.60;90.95;96616.50;4966637;28;20101;-63
2021/05/21 04:55:29;;;;;;;5.55;4.97;;;;;;;13.73;90.89;96613.31;4948509;28;20031;-63
2021/05/21 04:57:55;;;;;;;7.75;6.20;;;;;;;14.01;89.03;96619.59;4966553;28;20045;-62
2021/05/21 05:00:21;;;;;;;6.28;5.40;;;;;;;13.58;88.40;96579.94;4948396;28;20093;-62
2021/05/21 05:02:46;;;;;;;8.35;6.22;;;;;;;13.97;89.82;96629.16;4966680;28;20045;-62
2021/05/21 05:05:12;;;;;;;8.82;5.97;;;;;;;14.21;89.40;96631.06;4948089;28;20129;-64
2021/05/21 05:07:37;;;;;;;7.85;5.25;;;;;;;14.25;89.70;96623.50;4966831;28;20046;-63
2021/05/21 05:10:03;;;;;;;6.00;5.30;;;;;;;11.93;89.29;96295.88;4948129;28;20436;-66
2021/05/21 05:12:29;;;;;;;7.60;5.50;;;;;;;14.37;87.19;96609.16;4966320;28;20031;-60
2021/05/21 05:14:54;;;;;;;11.98;6.07;;;;;;;13.19;86.46;96406.78;4972533;28;20077;-70
2021/05/21 05:17:19;;;;;;;5.57;5.07;;;;;;;12.80;81.37;96350.47;4968478;28;20499;-63
2021/05/21 05:19:45;;;;;;;4.93;4.53;;;;;;;13.41;81.82;96391.59;4963123;28;20027;-64
2021/05/21 05:22:11;;;;;;;5.75;5.25;;;;;;;15.04;79.93;96620.66;4941886;28;20050;-60
2021/05/21 05:24:37;;;;;;;6.68;6.07;;;;;;;14.62;78.50;96520.59;4944384;29;20041;-68
2021/05/21 05:27:03;;;;;;;6.50;5.90;;;;;;;15.20;79.42;96618.16;4945729;28;20035;-65
2021/05/21 05:29:30;;;;;;;7.53;5.30;;;;;;;15.15;77.53;96576.75;4973294;28;20042;-62
2021/05/21 05:31:56;;;;;;;11.45;6.45;;;;;;;15.68;77.74;96616.16;4981211;28;20434;-68
2021/05/21 05:34:21;;;;;;;5.78;5.28;;;;;;;16.03;74.88;96615.78;4944323;28;20410;-63
2021/05/21 05:36:47;;;;;;;8.15;6.68;;;;;;;16.08;72.98;96615.34;4945081;28;20106;-64
2021/05/21 05:39:12;;;;;;;7.78;6.97;;;;;;;15.89;75.24;96610.38;4938780;28;20094;-68
2021/05/21 05:41:38;;;;;;;7.22;6.50;;;;;;;15.45;75.12;96484.00;4946274;29;20106;-63
2021/05/21 05:44:04;;;;;;;7.65;5.93;;;;;;;16.17;75.07;96618.41;4961906;28;20489;-60
2021/05/21 05:46:29;;;;;;;10.25;7.85;;;;;;;15.26;83.23;96638.84;4976565;28;20081;-61
2021/05/21 05:48:55;;;;;;;8.93;8.05;;;;;;;15.34;84.40;96648.75;4966755;28;20037;-60
2021/05/21 05:51:20;;;;;;;5.93;5.32;;;;;;;15.73;81.15;96632.47;4972742;28;20464;-60
2021/05/21 05:53:46;;;;;;;6.60;5.57;;;;;;;15.71;75.42;96643.25;4943968;29;20031;-60
2021/05/21 05:56:11;;;;;;;6.07;5.50;;;;;;;15.18;79.50;96559.19;4973225;28;20030;-63
2021/05/21 05:58:37;;;;;;;6.05;5.45;;;;;;;15.12;76.85;96513.41;4984205;28;20136;-62
2021/05/21 06:01:04;;;;;;;6.90;6.00;;;;;;;14.49;75.58;96575.22;4964815;28;20034;-66
2021/05/21 06:03:29;;;;;;;7.13;6.50;;;;;;;15.62;75.88;96668.06;4943102;29;20058;-65
2021/05/21 06:05:56;;;;;;;6.30;5.80;;;;;;;15.44;75.21;96592.09;4958917;28;20498;-65
2021/05/21 06:08:22;;;;;;;7.63;6.93;;;;;;;15.74;74.88;96610.94;4944268;29;20024;-62
2021/05/21 06:10:48;;;;;;;9.57;8.60;;;;;;;15.98;69.03;96649.75;4945734;29;20516;-59
2021/05/21 06:13:14;;;;;;;9.30;8.15;;;;;;;12.38;65.18;96149.81;4935022;28;20041;-62
2021/05/21 06:15:40;;;;;;;8.30;7.50;;;;;;;14.02;67.76;96497.84;4979090;28;20022;-62
2021/05/21 06:18:06;;;;;;;8.55;7.65;;;;;;;15.84;67.71;96686.22;4946957;28;20065;-62
2021/05/21 06:20:33;;;;;;;14.07;8.02;;;;;;;15.79;66.04;96672.69;4967318;28;20493;-62
2021/05/21 06:23:03;;;;;;;10.10;9.10;;;;;;;15.49;67.07;96641.84;4965123;28;20137;-62
2021/05/21 06:25:54;;;;;;;10.15;8.90;;;;;;;15.41;69.18;96687.81;4964371;28;20054;-60
2021/05/21 06:28:24;;;;;;;8.30;7.50;;;;;;;15.35;70.03;96678.22;4965072;28;20046;-60
2021/05/21 06:30:53;;;;;;;9.20;8.30;;;;;;;15.38;70.21;96627.19;4946271;28;20121;-62
2021/05/21 06:33:19;;;;;;;9.02;8.13;;;;;;;15.21;71.35;96541.63;4949074;28;20047;-63
2021/05/21 06:35:49;;;;;;;9.70;7.63;;;;;;;15.74;69.36;96689.94;4967046;28;20092;-63
2021/05/21 06:38:15;;;;;;;9.68;8.65;;;;;;;15.72;69.00;96683.94;4983708;28;20361;-60
2021/05/21 06:40:41;;;;;;;10.13;6.95;;;;;;;15.18;67.71;96654.03;4972578;28;20569;-64
2021/05/21 06:43:09;;;;;;;15.70;9.00;;;;;;;15.57;68.66;96699.22;4967293;28;20739;-61
2021/05/21 06:45:35;;;;;;;10.32;9.32;;;;;;;14.76;68.95;96570.69;4943191;28;20422;-62
2021/05/21 06:48:01;;;;;;;9.77;8.80;;;;;;;14.70;67.55;96491.47;4962746;28;20039;-64
2021/05/21 06:50:26;;;;;;;8.77;5.95;;;;;;;15.63;65.30;96703.19;4968501;28;20390;-61
2021/05/21 06:52:52;;;;;;;9.25;8.35;;;;;;;15.97;64.34;96711.66;4952636;28;20047;-62
2021/05/21 06:55:17;;;;;;;7.38;6.78;;;;;;;15.51;64.95;96661.78;4982008;28;20100;-63
2021/05/21 06:57:43;;;;;;;8.50;7.60;;;;;;;16.10;64.41;96716.31;4984660;28;20584;-65
2021/05/21 07:00:09;;;;;;;7.75;6.30;;;;;;;14.83;63.46;96593.72;4970942;28;20046;-66
2021/05/21 07:02:35;;;;;;;8.45;7.32;;;;;;;15.82;64.29;96722.16;4948927;28;20062;-64
2021/05/21 07:05:01;;;;;;;6.63;6.03;;;;;;;15.91;64.64;96733.66;4969957;28;20030;-67
2021/05/21 07:07:30;;;;;;;5.65;5.20;;;;;;;15.98;62.69;96735.59;4967968;28;20410;-62
2021/05/21 07:09:56;;;;;;;6.88;5.70;;;;;;;14.66;65.18;96646.81;4968094;28;20038;-63
2021/05/21 07:12:21;;;;;;;5.82;5.32;;;;;;;15.06;65.97;96718.69;4985115;28;20405;-62
2021/05/21 07:14:46;;;;;;;7.55;5.60;;;;;;;15.28;68.43;96755.63;4987958;28;20409;-63
2021/05/21 07:17:12;;;;;;;5.40;5.00;;;;;;;15.06;65.23;96718.69;4953218;28;20101;-60
2021/05/21 07:19:37;;;;;;;6.05;5.50;;;;;;;15.58;65.99;96734.34;4967602;28;20050;-61
2021/05/21 07:22:06;;;;;;;6.47;4.43;;;;;;;15.92;63.43;96757.59;4971730;28;20500;-60
2021/05/21 07:24:32;;;;;;;7.10;6.18;;;;;;;15.92;65.53;96777.13;4960506;28;20038;-62
2021/05/21 07:26:58;;;;;;;11.68;8.55;;;;;;;14.79;67.42;96653.50;4974998;28;20050;-64
2021/05/21 07:29:23;;;;;;;6.15;5.55;;;;;;;15.73;65.65;96769.31;4980960;28;20475;-60
2021/05/21 07:31:49;;;;;;;8.50;6.22;;;;;;;16.24;67.23;96766.47;4970890;28;20027;-62
2021/05/21 07:34:14;;;;;;;4.78;4.38;;;;;;;15.59;64.70;96724.75;4968102;28;20121;-65
2021/05/21 07:36:40;;;;;;;4.78;4.28;;;;;;;16.02;62.33;96737.16;4971415;28;20163;-63
2021/05/21 07:39:06;;;;;;;6.80;6.10;;;;;;;16.55;66.22;96782.16;4964823;28;20078;-60
2021/05/21 07:41:31;;;;;;;4.43;4.13;;;;;;;16.74;61.47;96782.78;4973173;28;20109;-61
2021/05/21 07:43:58;;;;;;;3.92;3.63;;;;;;;16.93;60.37;96787.75;4948762;28;20042;-69
2021/05/21 07:46:24;;;;;;;5.95;3.80;;;;;;;17.22;58.54;96786.97;4953165;28;20610;-62
2021/05/21 07:48:50;;;;;;;2.95;2.78;;;;;;;17.67;53.50;96784.78;4948288;29;20043;-63
2021/05/21 07:51:17;;;;;;;8.05;3.72;;;;;;;18.04;55.84;96781.78;4947953;29;20833;-60
2021/05/21 07:53:43;;;;;;;5.15;4.75;;;;;;;17.91;57.45;96789.19;4948399;29;20043;-62
2021/05/21 07:56:08;;;;;;;5.22;4.72;;;;;;;17.18;57.51;96751.84;4978123;28;20092;-61
2021/05/21 07:58:34;;;;;;;3.58;3.38;;;;;;;16.91;57.63;96655.88;4975386;28;20505;-66
2021/05/21 08:01:00;;;;;;;3.33;3.13;;;;;;;17.67;53.30;96729.53;4968176;28;20031;-70
2021/05/21 08:03:26;;;;;;;4.10;3.78;;;;;;;17.29;55.94;96752.50;4961233;28;20034;-61
2021/05/21 08:05:51;;;;;;;3.40;3.20;;;;;;;18.00;53.70;96806.28;4966923;28;20038;-65
2021/05/21 08:08:24;;;;;;;3.55;3.35;;;;;;;17.88;54.81;96806.84;4949666;28;20050;-61
2021/05/21 08:10:56;;;;;;;3.45;3.25;;;;;;;15.88;54.47;96446.78;4981469;28;20109;-70
2021/05/21 08:13:22;;;;;;;3.00;2.75;;;;;;;18.23;52.42;96811.91;4986454;28;20484;-66
2021/05/21 08:15:48;;;;;;;8.30;6.18;;;;;;;18.36;53.92;96810.09;4980727;28;20034;-64
2021/05/21 08:18:14;;;;;;;4.07;3.67;;;;;;;17.90;53.38;96812.84;4978663;28;20405;-61
2021/05/21 08:20:42;;;;;;;5.72;4.53;;;;;;;17.36;54.96;96780.38;4966517;28;20031;-58
2021/05/21 08:23:09;;;;;;;4.40;4.03;;;;;;;17.56;57.97;96824.13;4967178;28;20054;-62
2021/05/21 08:25:35;;;;;;;9.13;5.90;;;;;;;17.43;58.69;96837.09;4976580;28;20050;-60
2021/05/21 08:28:00;;;;;;;5.88;4.72;;;;;;;16.81;58.88;96796.66;4966996;28;20038;-70
2021/05/21 08:30:26;;;;;;;3.38;2.80;;;;;;;17.07;56.55;96827.53;4967050;28;20038;-66
2021/05/21 08:32:52;;;;;;;5.88;5.28;;;;;;;17.37;59.39;96815.59;4974569;28;20038;-65
2021/05/21 08:35:18;;;;;;;6.95;5.10;;;;;;;17.08;57.99;96847.94;4968159;28;20070;-63
2021/05/21 08:37:44;;;;;;;12.43;7.30;;;;;;;17.31;60.74;96862.84;4947711;28;20064;-63
2021/05/21 08:40:13;;;;;;;4.43;3.35;;;;;;;16.33;57.80;96740.81;4933380;28;20473;-66
2021/05/21 08:42:40;;;;;;;7.25;5.70;;;;;;;16.47;62.97;96747.09;4945070;29;20039;-68
2021/05/21 08:45:11;;;;;;;5.97;4.25;;;;;;;16.55;62.79;96873.66;4968293;28;20070;-68
2021/05/21 08:47:37;;;;;;;3.38;3.08;;;;;;;14.99;63.33;96757.78;4949218;28;20128;-70
2021/05/21 08:50:09;;;;;;;3.55;3.25;;;;;;;15.53;66.78;96877.16;4945704;28;20121;-69
2021/05/21 08:52:34;;;;;;;4.68;4.28;;;;;;;15.44;69.19;96879.59;4929700;29;20402;-68
2021/05/21 08:55:00;;;;;;;3.70;3.33;;;;;;;15.68;68.77;96889.81;4979540;28;20537;-62
2021/05/21 08:57:29;;;;;;;2.90;2.63;;;;;;;15.41;69.45;96888.78;4974514;28;20031;-65
2021/05/21 08:59:54;;;;;;;2.50;2.40;;;;;;;14.93;70.19;96854.22;4947472;28;20027;-65
2021/05/21 09:02:25;;;;;;;4.22;3.65;;;;;;;14.95;75.03;96846.28;4965603;28;20047;-65
2021/05/21 09:04:59;;;;;;;3.38;2.88;;;;;;;14.66;76.24;96788.97;4965854;28;20034;-61
2021/05/21 09:07:33;;;;;;;2.63;2.42;;;;;;;15.48;72.79;96902.69;4965807;28;20384;-68
2021/05/21 09:10:08;;;;;;;2.78;2.55;;;;;;;13.90;72.43;96718.25;4965638;28;21278;-62
2021/05/21 09:12:49;;;;;;;2.38;2.28;;;;;;;14.99;73.59;96870.16;4966124;28;20039;-66
2021/05/21 09:15:19;;;;;;;2.50;2.40;;;;;;;15.64;73.77;96916.97;4966432;28;20280;-62
2021/05/21 09:17:57;;;;;;;2.28;2.17;;;;;;;15.67;72.39;96918.97;4965988;28;20122;-65
2021/05/21 09:20:31;;;;;;;2.00;1.90;;;;;;;15.63;67.58;96904.22;4965551;28;20110;-68
2021/05/21 09:23:08;;;;;;;3.38;2.45;;;;;;;15.84;70.65;96920.84;4966103;28;20045;-67
2021/05/21 09:25:41;;;;;;;2.13;2.03;;;;;;;15.60;70.43;96927.34;4965056;28;20042;-61
2021/05/21 09:28:37;;;;;;;3.03;2.70;;;;;;;13.75;74.46;96688.84;4965864;28;20054;-62
2021/05/21 09:31:23;;;;;;;2.78;2.58;;;;;;;15.10;76.27;96925.91;4965306;28;20042;-63
2021/05/21 09:33:52;;;;;;;3.03;2.83;;;;;;;14.31;77.21;96833.63;4948242;28;20535;-67
2021/05/21 09:36:32;;;;;;;5.40;4.07;;;;;;;14.79;74.51;96899.69;4948027;28;20034;-62
2021/05/21 09:38:58;;;;;;;7.97;4.55;;;;;;;15.00;78.06;96929.53;4947816;28;20051;-62
2021/05/21 09:41:25;;;;;;;5.20;3.80;;;;;;;15.01;77.19;96929.13;4947199;28;20058;-62
2021/05/21 09:43:55;;;;;;;4.90;4.43;;;;;;;15.13;76.64;96908.38;4964814;28;20046;-61
2021/05/21 09:46:21;;;;;;;4.45;3.53;;;;;;;15.65;74.96;96943.69;4965375;28;20050;-61
2021/05/21 09:48:48;;;;;;;4.68;3.88;;;;;;;15.47;75.15;96788.66;4965432;28;20031;-63
2021/05/21 09:51:14;;;;;;;5.13;4.63;;;;;;;15.28;70.58;96831.78;4965580;28;20054;-66
2021/05/21 09:53:39;;;;;;;4.60;3.63;;;;;;;15.99;69.19;96838.56;4965544;28;20050;-67
2021/05/21 09:56:06;;;;;;;4.82;4.22;;;;;;;16.92;68.97;96896.06;4965435;28;20520;-67
2021/05/21 09:58:42;;;;;;;4.03;3.72;;;;;;;17.28;65.26;96924.47;4947744;28;20039;-67
2021/05/21 10:01:23;;;;;;;5.47;4.50;;;;;;;17.28;65.62;96919.69;4965020;28;20035;-63
2021/05/21 10:03:58;;;;;;;5.28;4.30;;;;;;;16.96;66.31;96924.03;4947307;28;20061;-62
2021/05/21 10:06:26;;;;;;;7.32;5.32;;;;;;;17.38;68.06;96923.56;4964703;28;20031;-67
2021/05/21 10:08:55;;;;;;;5.10;4.70;;;;;;;17.93;62.47;96921.28;4964991;28;20043;-67
2021/05/21 10:11:21;;;;;;;3.47;3.28;;;;;;;18.25;57.71;96876.78;4964557;28;20085;-63
2021/05/21 10:13:46;;;;;;;2.67;2.58;;;;;;;18.02;54.29;96868.31;4965060;28;20498;-65
2021/05/21 10:16:19;;;;;;;3.20;3.00;;;;;;;19.01;53.39;96921.63;4946735;28;20071;-62
2021/05/21 10:18:52;;;;;;;8.88;5.93;;;;;;;18.10;54.65;96883.81;4947254;28;20043;-61
2021/05/21 10:21:20;;;;;;;4.10;3.80;;;;;;;18.42;54.98;96915.00;4946896;28;20834;-65
2021/05/21 10:23:51;;;;;;;3.10;2.90;;;;;;;18.53;54.04;96887.56;4964947;28;20112;-66
2021/05/21 10:26:38;;;;;;;2.95;2.75;;;;;;;17.71;54.35;96709.88;4964445;28;20034;-63
2021/05/21 10:29:11;;;;;;;2.50;2.40;;;;;;;18.22;52.67;96815.94;4947043;28;20038;-66
2021/05/21 10:31:36;;;;;;;2.70;2.50;;;;;;;18.64;53.52;96916.22;4964582;28;20046;-65
2021/05/21 10:34:14;;;;;;;2.85;2.65;;;;;;;19.51;52.77;96907.44;4947436;28;20035;-61
2021/05/21 10:36:40;;;;;;;4.38;3.10;;;;;;;18.63;51.94;96872.56;4969754;28;20082;-62
2021/05/21 10:39:07;;;;;;;3.03;2.92;;;;;;;18.80;52.03;96919.16;4971899;28;20086;-70
2021/05/21 10:41:37;;;;;;;6.57;4.85;;;;;;;17.92;54.46;96855.25;4977146;28;20032;-62
2021/05/21 10:44:27;;;;;;;3.20;2.88;;;;;;;18.63;52.61;96892.22;4982550;28;20034;-67
2021/05/21 10:47:25;;;;;;;2.92;2.72;;;;;;;19.02;51.61;96937.22;4971230;28;20563;-69
2021/05/21 10:49:50;;;;;;;5.15;3.45;;;;;;;18.81;51.07;96948.81;4966543;28;20084;-61
2021/05/21 10:52:16;;;;;;;3.72;3.47;;;;;;;18.31;53.02;96947.97;4984018;28;20475;-62
2021/05/21 10:54:44;;;;;;;4.40;3.90;;;;;;;18.50;55.54;96944.53;4984457;28;20572;-60
2021/05/21 10:57:14;;;;;;;5.43;4.45;;;;;;;18.79;54.16;96944.84;4977898;28;20030;-64
2021/05/21 10:59:43;;;;;;;3.30;3.10;;;;;;;18.37;52.33;96949.09;4964109;28;20051;-60
2021/05/21 11:02:12;;;;;;;3.42;3.17;;;;;;;18.93;51.39;96956.66;4962166;28;20043;-65
2021/05/21 11:04:37;;;;;;;3.00;2.90;;;;;;;19.44;48.55;96969.41;4950864;28;20124;-61
2021/05/21 11:07:04;;;;;;;6.05;3.45;;;;;;;19.34;51.53;96909.38;4942571;28;20039;-66
2021/05/21 11:09:31;;;;;;;3.17;2.97;;;;;;;19.24;47.54;96847.75;4987108;28;20026;-61
2021/05/21 11:12:09;;;;;;;3.10;2.90;;;;;;;20.01;47.05;96924.06;4952651;28;20043;-66
2021/05/21 11:14:39;;;;;;;4.10;3.13;;;;;;;19.59;48.41;96965.09;4977168;28;20484;-67
2021/05/21 11:17:25;;;;;;;3.33;3.13;;;;;;;19.86;47.77;96956.50;4963529;28;20042;-62
2021/05/21 11:19:56;;;;;;;3.13;2.83;;;;;;;17.60;47.90;96628.81;4946332;28;20512;-62
2021/05/21 11:22:29;;;;;;;3.50;3.30;;;;;;;19.08;48.04;96873.72;4927255;29;20039;-58
2021/05/21 11:25:04;;;;;;;4.50;4.10;;;;;;;19.10;48.39;96980.81;4927413;29;20089;-63
2021/05/21 11:27:32;;;;;;;3.08;2.92;;;;;;;18.41;49.90;96904.19;4972151;28;20427;-61
2021/05/21 11:29:58;;;;;;;3.65;3.20;;;;;;;18.60;50.18;96915.50;4949112;28;20035;-63